createdAt,value
2022-12-06T00:01:37.168Z,3.50
2022-12-06T00:04:11.947Z,3.50
2022-12-06T00:06:47.672Z,3.50
2022-12-06T00:09:23.178Z,3.50
2022-12-06T00:11:50.658Z,3.50
2022-12-06T00:14:19.070Z,3.50
2022-12-06T00:16:47.145Z,3.50
2022-12-06T00:19:17.513Z,3.50
2022-12-06T00:21:44.898Z,3.40
2022-12-06T00:24:15.882Z,3.40
2022-12-06T00:26:45.916Z,3.40
2022-12-06T00:29:16.650Z,3.40
2022-12-06T00:31:44.009Z,3.40
2022-12-06T00:34:11.313Z,3.30
2022-12-06T00:36:40.980Z,3.30
2022-12-06T00:39:12.975Z,3.30
2022-12-06T00:41:41.128Z,3.30
2022-12-06T00:44:08.293Z,3.30
2022-12-06T00:46:38.130Z,3.30
2022-12-06T00:49:07.319Z,3.20
2022-12-06T00:51:35.263Z,3.30
2022-12-06T00:54:02.932Z,3.30
2022-12-06T00:56:30.609Z,3.30
2022-12-06T00:58:57.686Z,3.30
2022-12-06T01:01:28.724Z,3.30
2022-12-06T01:03:59.730Z,3.30
2022-12-06T01:06:31.394Z,3.20
2022-12-06T01:09:02.875Z,3.20
2022-12-06T01:11:30.792Z,3.20
2022-12-06T01:13:58.293Z,3.20
2022-12-06T01:16:29.457Z,3.20
2022-12-06T01:19:00.253Z,3.20
2022-12-06T01:21:28.905Z,3.20
2022-12-06T01:23:56.409Z,3.30
2022-12-06T01:26:28.734Z,3.20
2022-12-06T01:28:57.938Z,3.20
2022-12-06T01:31:25.122Z,3.20
2022-12-06T01:33:52.445Z,3.30
2022-12-06T01:36:23.531Z,3.30
2022-12-06T01:38:58.939Z,3.30
2022-12-06T01:41:28.462Z,3.40
2022-12-06T01:43:56.868Z,3.30
2022-12-06T01:46:39.365Z,3.30
2022-12-06T01:49:12.262Z,3.30
2022-12-06T01:51:47.487Z,3.30
2022-12-06T01:54:17.773Z,3.30
2022-12-06T01:56:44.942Z,3.30
2022-12-06T01:59:12.875Z,3.20
2022-12-06T02:01:41.122Z,3.30
2022-12-06T02:04:09.043Z,3.30
2022-12-06T02:06:37.340Z,3.30
2022-12-06T02:09:07.506Z,3.30
2022-12-06T02:11:35.779Z,3.30
2022-12-06T02:14:11.528Z,3.30
2022-12-06T02:17:12.251Z,3.30
2022-12-06T02:19:57.579Z,3.20
2022-12-06T02:22:42.745Z,3.20
2022-12-06T02:26:03.303Z,3.30
2022-12-06T02:28:57.657Z,3.30
2022-12-06T02:31:40.467Z,3.20
2022-12-06T02:34:20.076Z,3.20
2022-12-06T02:36:58.327Z,3.20
2022-12-06T02:39:34.685Z,3.10
2022-12-06T02:42:39.491Z,3.10
2022-12-06T02:45:15.946Z,3.10
2022-12-06T02:47:44.773Z,3.00
2022-12-06T02:50:18.998Z,3.10
2022-12-06T02:52:51.410Z,3.10
2022-12-06T02:55:19.573Z,3.00
2022-12-06T02:57:50.053Z,3.10
2022-12-06T03:00:40.045Z,3.10
2022-12-06T03:03:28.617Z,3.10
2022-12-06T03:06:01.870Z,3.00
2022-12-06T03:09:05.765Z,3.00
2022-12-06T03:12:16.684Z,3.00
2022-12-06T03:14:59.350Z,3.00
2022-12-06T03:17:42.458Z,3.10
2022-12-06T03:20:19.861Z,3.00
2022-12-06T03:22:58.710Z,3.10
2022-12-06T03:25:26.758Z,3.10
2022-12-06T03:27:56.733Z,3.10
2022-12-06T03:30:24.566Z,3.10
2022-12-06T03:32:53.098Z,3.10
2022-12-06T03:35:27.626Z,3.10
2022-12-06T03:38:19.632Z,3.10
2022-12-06T03:40:50.252Z,3.10
2022-12-06T03:43:17.508Z,3.10
2022-12-06T03:45:58.866Z,3.10
2022-12-06T03:48:41.667Z,3.10
2022-12-06T03:51:15.954Z,3.20
2022-12-06T03:53:53.567Z,3.20
2022-12-06T03:56:22.157Z,3.10
2022-12-06T03:58:49.519Z,3.10
2022-12-06T04:01:16.886Z,3.00
2022-12-06T04:03:44.191Z,2.90
2022-12-06T04:06:12.448Z,2.90
2022-12-06T04:08:40.207Z,2.80
2022-12-06T04:11:07.381Z,2.70
2022-12-06T04:13:35.766Z,2.70
2022-12-06T04:16:02.939Z,2.70
2022-12-06T04:18:30.447Z,2.70
2022-12-06T04:21:22.262Z,2.70
2022-12-06T04:23:52.280Z,2.60
2022-12-06T04:26:22.467Z,2.60
2022-12-06T04:29:11.037Z,2.60
2022-12-06T04:31:58.585Z,2.60
2022-12-06T04:34:44.274Z,2.60
2022-12-06T04:37:29.863Z,2.70
2022-12-06T04:39:57.284Z,2.70
2022-12-06T04:42:42.695Z,2.70
2022-12-06T04:45:10.380Z,2.70
2022-12-06T04:47:37.413Z,2.70
2022-12-06T04:50:04.986Z,2.70
2022-12-06T04:52:35.707Z,2.80
2022-12-06T04:55:05.053Z,2.80
2022-12-06T04:57:32.190Z,2.80
2022-12-06T04:59:59.386Z,2.90
2022-12-06T05:02:26.633Z,2.90
2022-12-06T05:04:53.695Z,2.90
2022-12-06T05:07:20.928Z,2.90
2022-12-06T05:09:47.946Z,3.00
2022-12-06T05:12:14.989Z,3.00
2022-12-06T05:14:41.977Z,3.00
2022-12-06T05:17:09.185Z,3.00
2022-12-06T05:19:36.431Z,3.00
2022-12-06T05:22:03.614Z,3.00
2022-12-06T05:24:30.637Z,2.90
2022-12-06T05:26:57.735Z,2.90
2022-12-06T05:29:24.734Z,2.90
2022-12-06T05:31:51.771Z,2.90
2022-12-06T05:34:18.886Z,2.80
2022-12-06T05:36:46.104Z,2.90
2022-12-06T05:39:13.350Z,2.80
2022-12-06T05:41:40.436Z,2.80
2022-12-06T05:44:08.809Z,2.80
2022-12-06T05:46:35.865Z,2.80
2022-12-06T05:49:03.917Z,2.80
2022-12-06T05:51:30.911Z,2.80
2022-12-06T05:53:57.912Z,2.80
2022-12-06T05:56:24.981Z,2.90
2022-12-06T05:58:51.994Z,2.90
2022-12-06T06:01:18.987Z,2.90
2022-12-06T06:03:48.016Z,2.90
2022-12-06T06:06:16.231Z,2.90
2022-12-06T06:08:43.416Z,2.80
2022-12-06T06:11:10.684Z,2.80
2022-12-06T06:13:39.176Z,2.80
2022-12-06T06:16:06.602Z,2.80
2022-12-06T06:18:33.914Z,2.90
2022-12-06T06:21:01.671Z,3.00
2022-12-06T06:23:29.257Z,3.00
2022-12-06T06:25:57.046Z,2.90
2022-12-06T06:28:24.465Z,2.90
2022-12-06T06:30:51.798Z,2.90
2022-12-06T06:33:19.225Z,2.90
2022-12-06T06:35:48.554Z,2.90
2022-12-06T06:38:16.644Z,2.80
2022-12-06T06:40:43.852Z,2.80
2022-12-06T06:43:20.618Z,2.80
2022-12-06T06:45:56.936Z,2.80
2022-12-06T06:48:26.769Z,2.70
2022-12-06T06:50:57.315Z,2.70
2022-12-06T06:53:27.776Z,2.80
2022-12-06T06:55:55.325Z,2.90
2022-12-06T06:58:22.939Z,2.80
2022-12-06T07:00:58.832Z,2.70
2022-12-06T07:03:27.193Z,2.70
2022-12-06T07:06:00.918Z,2.70
2022-12-06T07:08:30.502Z,2.80
2022-12-06T07:10:57.876Z,2.80
2022-12-06T07:13:28.193Z,2.80
2022-12-06T07:15:55.676Z,2.80
2022-12-06T07:18:23.360Z,2.70
2022-12-06T07:21:00.730Z,2.70
2022-12-06T07:23:27.838Z,2.70
2022-12-06T07:26:23.052Z,2.60
2022-12-06T07:28:51.299Z,2.60
2022-12-06T07:31:25.244Z,2.60
2022-12-06T07:33:54.808Z,2.60
2022-12-06T07:36:23.350Z,2.60
2022-12-06T07:38:54.478Z,2.60
2022-12-06T07:41:43.136Z,2.50
2022-12-06T07:44:33.526Z,2.50
2022-12-06T07:47:00.852Z,2.50
2022-12-06T07:49:28.009Z,2.50
2022-12-06T07:51:56.586Z,2.50
2022-12-06T07:54:24.439Z,2.50
2022-12-06T07:56:52.053Z,2.50
2022-12-06T07:59:19.230Z,2.50
2022-12-06T08:01:46.382Z,2.50
2022-12-06T08:04:13.809Z,2.50
2022-12-06T08:06:40.987Z,2.50
2022-12-06T08:09:09.525Z,2.50
2022-12-06T08:11:36.923Z,2.50
2022-12-06T08:14:05.100Z,2.50
2022-12-06T08:16:32.368Z,2.50
2022-12-06T08:18:59.517Z,2.50
2022-12-06T08:21:27.026Z,2.60
2022-12-06T08:23:55.186Z,2.60
2022-12-06T08:26:23.218Z,2.60
2022-12-06T08:28:50.934Z,2.60
2022-12-06T08:31:22.902Z,2.50
2022-12-06T08:33:50.543Z,2.50
2022-12-06T08:36:22.369Z,2.60
2022-12-06T08:38:50.836Z,2.60
2022-12-06T08:41:36.693Z,2.60
2022-12-06T08:44:04.478Z,2.60
2022-12-06T08:46:33.683Z,2.70
2022-12-06T08:49:01.757Z,2.70
2022-12-06T08:51:29.818Z,2.60
2022-12-06T08:53:57.142Z,2.60
2022-12-06T08:56:25.901Z,2.60
2022-12-06T08:58:54.524Z,2.70
2022-12-06T09:01:37.499Z,2.70
2022-12-06T09:04:08.809Z,2.80
2022-12-06T09:06:41.948Z,2.80
2022-12-06T09:09:10.609Z,2.80
2022-12-06T09:11:40.380Z,2.90
2022-12-06T09:14:09.349Z,2.90
2022-12-06T09:16:38.750Z,3.00
2022-12-06T09:19:05.815Z,3.10
2022-12-06T09:21:34.361Z,3.10
2022-12-06T09:24:01.505Z,3.10
2022-12-06T09:26:28.693Z,3.20
2022-12-06T09:28:57.317Z,3.30
2022-12-06T09:31:25.759Z,3.30
2022-12-06T09:33:54.248Z,3.30
2022-12-06T09:36:28.294Z,3.30
2022-12-06T09:39:04.914Z,3.50
2022-12-06T09:42:08.415Z,3.40
2022-12-06T09:44:45.495Z,3.40
2022-12-06T09:47:33.490Z,3.40
2022-12-06T09:50:16.149Z,3.40
2022-12-06T09:53:11.554Z,3.30
2022-12-06T09:55:55.961Z,3.30
2022-12-06T09:59:03.701Z,3.40
2022-12-06T10:01:52.677Z,3.40
2022-12-06T10:04:55.557Z,3.30
2022-12-06T10:08:13.005Z,3.20
2022-12-06T10:11:09.014Z,3.20
2022-12-06T10:13:54.511Z,3.30
2022-12-06T10:17:00.554Z,3.30
2022-12-06T10:19:50.237Z,3.20
2022-12-06T10:22:38.405Z,3.10
2022-12-06T10:25:11.527Z,3.10
2022-12-06T10:27:50.370Z,3.00
2022-12-06T10:30:18.049Z,3.10
2022-12-06T10:33:35.852Z,3.20
2022-12-06T10:36:06.711Z,3.30
2022-12-06T10:38:53.384Z,3.30
2022-12-06T10:41:28.606Z,3.40
2022-12-06T10:44:05.656Z,3.30
2022-12-06T10:47:05.009Z,3.20
2022-12-06T10:50:09.004Z,3.20
2022-12-06T10:52:40.943Z,3.30
2022-12-06T10:55:13.324Z,3.40
2022-12-06T10:58:14.070Z,3.50
2022-12-06T11:01:04.691Z,3.60
2022-12-06T11:03:42.705Z,3.60
2022-12-06T11:06:43.615Z,3.70
2022-12-06T11:09:39.565Z,3.70
2022-12-06T11:12:32.031Z,3.70
2022-12-06T11:15:33.899Z,3.70
2022-12-06T11:18:13.509Z,3.70
2022-12-06T11:21:23.861Z,3.80
2022-12-06T11:23:53.609Z,3.80
2022-12-06T11:26:42.680Z,3.80
2022-12-06T11:29:13.886Z,3.90
2022-12-06T11:31:47.415Z,3.80
2022-12-06T11:34:20.445Z,3.80
2022-12-06T11:36:56.684Z,3.90
2022-12-06T11:39:28.593Z,3.90
2022-12-06T11:42:02.469Z,4.00
2022-12-06T11:45:03.416Z,3.90
2022-12-06T11:47:30.797Z,3.90
2022-12-06T11:50:02.797Z,3.90
2022-12-06T11:52:44.298Z,4.00
2022-12-06T11:55:23.005Z,4.00
2022-12-06T11:57:58.291Z,4.00
2022-12-06T12:00:26.522Z,4.10
2022-12-06T12:02:56.876Z,4.00
2022-12-06T12:05:38.749Z,4.10
2022-12-06T12:08:16.587Z,4.20
2022-12-06T12:10:46.434Z,4.10
2022-12-06T12:13:31.711Z,4.00
2022-12-06T12:16:06.452Z,4.10
2022-12-06T12:18:43.638Z,4.00
2022-12-06T12:21:11.268Z,4.10
2022-12-06T12:23:45.600Z,4.20
2022-12-06T12:26:20.161Z,4.30
2022-12-06T12:29:08.693Z,4.30
2022-12-06T12:31:51.911Z,4.30
2022-12-06T12:34:24.642Z,4.30
2022-12-06T12:37:20.374Z,4.30
2022-12-06T12:39:54.221Z,4.30
2022-12-06T12:42:33.131Z,4.40
2022-12-06T12:45:04.368Z,4.50
2022-12-06T12:47:33.039Z,4.70
2022-12-06T12:50:28.007Z,4.80
2022-12-06T12:52:55.532Z,4.80
2022-12-06T12:55:31.272Z,4.80
2022-12-06T12:58:01.577Z,4.80
2022-12-06T13:00:46.182Z,4.90
2022-12-06T13:03:49.675Z,4.90
2022-12-06T13:06:05.942Z,4.80
2022-12-06T13:08:36.383Z,4.70
2022-12-06T13:11:05.706Z,4.40
2022-12-06T13:13:50.310Z,4.40
2022-12-06T13:16:30.931Z,4.40
2022-12-06T13:18:59.245Z,4.10
2022-12-06T13:21:38.738Z,4.10
2022-12-06T13:24:11.596Z,4.00
2022-12-06T13:26:55.165Z,4.00
2022-12-06T13:29:41.009Z,4.10
2022-12-06T13:32:33.561Z,4.10
2022-12-06T13:35:08.851Z,4.10
2022-12-06T13:37:44.705Z,4.10
2022-12-06T13:40:33.477Z,4.10
2022-12-06T13:43:09.634Z,4.20
2022-12-06T13:45:48.546Z,4.10
2022-12-06T13:48:24.780Z,4.20
2022-12-06T13:51:04.331Z,4.30
2022-12-06T13:53:34.214Z,4.20
2022-12-06T13:56:40.661Z,4.10
2022-12-06T13:59:15.762Z,4.20
2022-12-06T14:01:58.824Z,4.20
2022-12-06T14:06:57.056Z,4.20
2022-12-06T14:09:26.486Z,4.20
2022-12-06T14:11:54.010Z,4.20
2022-12-06T14:14:24.543Z,4.20
2022-12-06T14:17:26.776Z,4.20
2022-12-06T14:20:01.688Z,4.20
2022-12-06T14:22:34.354Z,4.20
2022-12-06T14:25:19.058Z,4.30
2022-12-06T14:27:52.909Z,4.20
2022-12-06T14:30:26.590Z,4.20
2022-12-06T14:32:57.366Z,4.20
2022-12-06T14:35:38.671Z,4.10
2022-12-06T14:38:25.145Z,4.10
2022-12-06T14:41:11.628Z,4.00
2022-12-06T14:43:39.364Z,3.90
2022-12-06T14:46:12.086Z,3.90
2022-12-06T14:48:57.937Z,3.90
2022-12-06T14:51:35.337Z,3.80
2022-12-06T14:54:45.146Z,3.80
2022-12-06T14:57:29.953Z,3.90
2022-12-06T15:00:16.152Z,3.90
2022-12-06T15:03:06.579Z,3.90
2022-12-06T15:05:39.841Z,4.00
2022-12-06T15:08:28.629Z,3.90
2022-12-06T15:11:01.357Z,3.90
2022-12-06T15:13:29.582Z,3.90
2022-12-06T15:16:15.822Z,3.90
2022-12-06T15:19:00.540Z,4.00
2022-12-06T15:21:27.579Z,3.90
2022-12-06T15:23:57.069Z,3.90
2022-12-06T15:26:25.524Z,3.90
2022-12-06T15:28:52.877Z,3.90
2022-12-06T15:31:37.286Z,3.90
2022-12-06T15:34:31.300Z,3.90
2022-12-06T15:37:30.247Z,3.90
2022-12-06T15:39:48.507Z,3.90
2022-12-06T15:42:23.007Z,3.80
2022-12-06T15:44:51.137Z,3.80
2022-12-06T15:47:21.430Z,3.80
2022-12-06T15:49:51.287Z,3.80
2022-12-06T15:52:25.007Z,3.80
2022-12-06T15:54:52.342Z,3.80
2022-12-06T15:57:19.474Z,3.80
2022-12-06T15:59:46.618Z,3.80
2022-12-06T16:02:17.400Z,3.80
2022-12-06T16:04:45.814Z,3.70
2022-12-06T16:07:18.674Z,3.70
2022-12-06T16:09:46.365Z,3.70
2022-12-06T16:12:13.368Z,3.70
2022-12-06T16:14:40.497Z,3.60
2022-12-06T16:17:07.960Z,3.60
2022-12-06T16:19:53.560Z,3.60
2022-12-06T16:22:40.523Z,3.60
2022-12-06T16:25:08.191Z,3.60
2022-12-06T16:27:35.185Z,3.60
2022-12-06T16:30:04.578Z,3.60
2022-12-06T16:32:31.718Z,3.50
2022-12-06T16:34:58.941Z,3.50
2022-12-06T16:37:26.153Z,3.50
2022-12-06T16:39:53.210Z,3.50
2022-12-06T16:42:20.210Z,3.50
2022-12-06T16:44:56.253Z,3.50
2022-12-06T16:49:49.720Z,3.40
2022-12-06T16:52:17.583Z,3.40
2022-12-06T16:54:45.025Z,3.40
2022-12-06T16:57:13.228Z,3.40
2022-12-06T16:59:42.528Z,3.30
2022-12-06T17:02:31.639Z,3.40
2022-12-06T17:05:06.273Z,3.40
2022-12-06T17:07:35.217Z,3.30
2022-12-06T17:10:02.990Z,3.30
2022-12-06T17:12:30.141Z,3.30
2022-12-06T17:14:59.544Z,3.30
2022-12-06T17:17:29.336Z,3.30
2022-12-06T17:19:56.496Z,3.30
2022-12-06T17:22:24.493Z,3.30
2022-12-06T17:24:51.610Z,3.30
2022-12-06T17:27:18.894Z,3.30
2022-12-06T17:29:46.079Z,3.20
2022-12-06T17:32:13.723Z,3.20
2022-12-06T17:34:40.938Z,3.20
2022-12-06T17:37:08.081Z,3.20
2022-12-06T17:39:35.434Z,3.20
2022-12-06T17:42:21.881Z,3.20
2022-12-06T17:44:51.721Z,3.20
2022-12-06T17:47:19.896Z,3.20
2022-12-06T17:49:47.184Z,3.20
2022-12-06T17:52:14.469Z,3.20
2022-12-06T17:54:41.581Z,3.20
2022-12-06T17:57:16.289Z,3.30
2022-12-06T17:59:45.586Z,3.30
2022-12-06T18:02:19.854Z,3.30
2022-12-06T18:04:48.102Z,3.40
2022-12-06T18:07:16.761Z,3.30
2022-12-06T18:09:44.174Z,3.40
2022-12-06T18:12:13.729Z,3.30
2022-12-06T18:14:40.841Z,3.30
2022-12-06T18:17:08.007Z,3.30
2022-12-06T18:19:35.406Z,3.40
2022-12-06T18:22:03.846Z,3.40
2022-12-06T18:24:35.401Z,3.40
2022-12-06T18:27:04.821Z,3.40
2022-12-06T18:29:32.121Z,3.40
2022-12-06T18:31:59.380Z,3.40
2022-12-06T18:34:26.806Z,3.40
2022-12-06T18:36:53.857Z,3.40
2022-12-06T18:39:24.865Z,3.40
2022-12-06T18:41:53.727Z,3.40
2022-12-06T18:44:21.188Z,3.40
2022-12-06T18:46:48.276Z,3.30
2022-12-06T18:49:15.532Z,3.40
2022-12-06T18:51:44.974Z,3.30
2022-12-06T18:54:14.037Z,3.30
2022-12-06T18:56:41.881Z,3.30
2022-12-06T18:59:10.573Z,3.30
2022-12-06T19:01:40.050Z,3.30
2022-12-06T19:04:09.523Z,3.30
2022-12-06T19:06:38.439Z,3.20
2022-12-06T19:09:12.437Z,3.20
2022-12-06T19:11:42.057Z,3.30
2022-12-06T19:14:10.168Z,3.30
2022-12-06T19:16:41.053Z,3.30
2022-12-06T19:19:16.656Z,3.30
2022-12-06T19:21:47.879Z,3.30
2022-12-06T19:24:20.083Z,3.20
2022-12-06T19:26:48.818Z,3.20
2022-12-06T19:29:16.701Z,3.20
2022-12-06T19:31:44.346Z,3.10
2022-12-06T19:34:23.797Z,3.10
2022-12-06T19:36:52.956Z,3.10
2022-12-06T19:39:23.065Z,3.10
2022-12-06T19:42:08.894Z,3.10
2022-12-06T19:44:38.873Z,3.00
2022-12-06T19:47:05.981Z,3.10
2022-12-06T19:49:33.256Z,3.20
2022-12-06T19:52:01.133Z,3.10
2022-12-06T19:54:31.451Z,3.10
2022-12-06T19:57:00.972Z,3.10
2022-12-06T19:59:34.746Z,3.10
2022-12-06T20:02:03.412Z,3.00
2022-12-06T20:04:37.189Z,3.10
2022-12-06T20:07:05.330Z,3.10
2022-12-06T20:09:33.834Z,3.10
2022-12-06T20:12:04.757Z,3.10
2022-12-06T20:14:47.576Z,3.00
2022-12-06T20:17:22.809Z,3.00
2022-12-06T20:19:50.064Z,3.00
2022-12-06T20:22:19.759Z,3.00
2022-12-06T20:24:46.894Z,3.00
2022-12-06T20:27:15.260Z,3.00
2022-12-06T20:29:42.596Z,3.00
2022-12-06T20:32:10.523Z,3.10
2022-12-06T20:34:38.417Z,3.10
2022-12-06T20:37:06.577Z,3.10
2022-12-06T20:39:35.945Z,3.10
2022-12-06T20:42:06.763Z,3.00
2022-12-06T20:44:34.760Z,3.00
2022-12-06T20:47:02.056Z,3.00
2022-12-06T20:49:29.300Z,3.00
2022-12-06T20:51:58.112Z,3.10
2022-12-06T20:54:25.169Z,3.20
2022-12-06T20:56:54.162Z,3.30
2022-12-06T20:59:21.648Z,3.20
2022-12-06T21:01:49.435Z,3.30
2022-12-06T21:04:17.033Z,3.20
2022-12-06T21:06:44.067Z,3.20
2022-12-06T21:09:11.460Z,3.20
2022-12-06T21:11:39.054Z,3.20
2022-12-06T21:14:08.267Z,3.20
2022-12-06T21:16:35.853Z,3.20
2022-12-06T21:19:06.985Z,3.30
2022-12-06T21:21:38.507Z,3.20
2022-12-06T21:24:15.371Z,3.20
2022-12-06T21:26:42.545Z,3.00
2022-12-06T21:29:18.176Z,3.00
2022-12-06T21:31:45.588Z,2.90
2022-12-06T21:34:14.522Z,2.80
2022-12-06T21:36:42.403Z,2.80
2022-12-06T21:39:12.561Z,2.80
2022-12-06T21:41:39.908Z,2.80
2022-12-06T21:44:07.109Z,2.80
2022-12-06T21:46:34.485Z,2.70
2022-12-06T21:49:01.985Z,2.70
2022-12-06T21:51:31.821Z,2.60
2022-12-06T21:53:59.270Z,2.50
2022-12-06T21:56:29.987Z,2.40
2022-12-06T21:59:00.206Z,2.20
2022-12-06T22:01:29.804Z,2.00
2022-12-06T22:03:59.990Z,1.90
2022-12-06T22:06:27.427Z,1.80
2022-12-06T22:09:04.157Z,1.70
2022-12-06T22:11:32.752Z,1.70
2022-12-06T22:14:01.170Z,1.60
2022-12-06T22:16:29.055Z,1.50
2022-12-06T22:18:56.958Z,1.60
2022-12-06T22:21:27.876Z,1.50
2022-12-06T22:23:58.192Z,1.50
2022-12-06T22:26:30.534Z,1.60
2022-12-06T22:28:59.505Z,1.60
2022-12-06T22:31:30.606Z,1.70
2022-12-06T22:33:58.301Z,1.70
2022-12-06T22:36:26.075Z,1.70
2022-12-06T22:38:57.037Z,1.70
2022-12-06T22:41:25.832Z,1.70
2022-12-06T22:43:59.189Z,1.70
2022-12-06T22:46:28.219Z,1.70
2022-12-06T22:48:57.129Z,1.70
2022-12-06T22:51:30.020Z,1.70
2022-12-06T22:54:03.917Z,1.80
2022-12-06T22:56:34.131Z,1.90
2022-12-06T22:59:02.622Z,1.90
2022-12-06T23:01:33.614Z,1.90
2022-12-06T23:04:05.089Z,1.90
2022-12-06T23:06:33.948Z,1.90
2022-12-06T23:09:02.887Z,2.00
2022-12-06T23:11:33.158Z,2.00
2022-12-06T23:14:00.310Z,2.00
2022-12-06T23:16:30.024Z,2.00
2022-12-06T23:18:57.663Z,2.00
2022-12-06T23:21:31.607Z,2.00
2022-12-06T23:24:05.176Z,2.00
2022-12-06T23:26:36.006Z,1.90
2022-12-06T23:29:03.823Z,1.90
2022-12-06T23:31:35.256Z,1.90
2022-12-06T23:34:11.682Z,1.90
2022-12-06T23:36:39.080Z,1.90
2022-12-06T23:39:07.209Z,1.90
2022-12-06T23:41:35.549Z,1.90
2022-12-06T23:44:04.160Z,2.00
2022-12-06T23:46:35.250Z,2.00
2022-12-06T23:49:03.182Z,2.00
2022-12-06T23:51:37.323Z,2.00
2022-12-06T23:54:07.192Z,2.10
2022-12-06T23:56:39.393Z,2.10
2022-12-06T23:59:10.905Z,2.10
